Time;durP1;ratioP1;P1;durP2;ratioP2;P2;SDS_P1;SDS_P2;PMS_P1;PMS_P2;Temp;Humidity;BMP_temperature;BMP_pressure;BME280_temperature;BME280_humidity;BME280_pressure;Samples;Min_cycle;Max_cycle;Signal;HPM_P1;HPM_P2
2022/01/21 00:01:31;;;;;;;10.25;2.85;;;;;;;;;;5027675;28;20469;-59
2022/01/21 00:03:57;;;;;;;18.92;3.30;;;;;;;;;;5025307;28;20096;-60
2022/01/21 00:06:23;;;;;;;17.05;3.20;;;;;;;;;;5026628;28;20056;-60
2022/01/21 00:08:53;;;;;;;15.55;3.30;;;;;;;;;;5029258;28;20029;-60
2022/01/21 00:11:20;;;;;;;14.65;3.28;;;;;;;;;;5030041;28;20135;-60
2022/01/21 00:13:46;;;;;;;22.90;2.90;;;;;;;;;;5030036;28;20101;-59
2022/01/21 00:16:14;;;;;;;15.18;3.70;;;;;;;;;;5029366;28;20075;-59
2022/01/21 00:18:42;;;;;;;14.30;3.45;;;;;;;;;;5030687;28;20032;-60
2022/01/21 00:32:08;;;;;;;20.67;4.20;;;;;;;;;;5027020;28;20043;-60
2022/01/21 00:34:34;;;;;;;16.50;3.33;;;;;;;;;;5023625;28;20025;-60
2022/01/21 00:37:01;;;;;;;17.20;4.00;;;;;;;;;;5026435;28;20033;-59
2022/01/21 00:39:30;;;;;;;19.25;3.63;;;;;;;;;;5030189;28;20100;-59
2022/01/21 00:44:31;;;;;;;13.93;3.55;;;;;;;;;;5027978;28;20124;-59
2022/01/21 00:46:57;;;;;;;15.15;3.10;;;;;;;;;;5028101;28;20116;-59
2022/01/21 00:49:23;;;;;;;13.90;3.33;;;;;;;;;;5025997;28;20084;-58
2022/01/21 00:51:49;;;;;;;15.98;3.58;;;;;;;;;;5026482;28;20311;-59
2022/01/21 00:54:15;;;;;;;16.45;3.55;;;;;;;;;;5027159;28;20056;-59
2022/01/21 00:56:41;;;;;;;16.60;3.45;;;;;;;;;;5029215;28;20026;-59
2022/01/21 00:59:07;;;;;;;16.15;3.42;;;;;;;;;;5028260;28;20018;-59
2022/01/21 01:01:33;;;;;;;19.17;3.75;;;;;;;;;;5029445;28;20033;-59
2022/01/21 01:03:59;;;;;;;20.70;4.10;;;;;;;;;;5029108;28;20062;-58
2022/01/21 01:06:25;;;;;;;22.00;3.80;;;;;;;;;;5030855;28;20075;-58
2022/01/21 01:08:53;;;;;;;19.42;3.50;;;;;;;;;;5029762;28;20031;-58
2022/01/21 01:11:43;;;;;;;19.77;3.40;;;;;;;;;;5029342;28;20071;-59
2022/01/21 01:20:08;;;;;;;18.48;3.60;;;;;;;;;;5032729;28;20106;-59
2022/01/21 01:22:37;;;;;;;14.80;3.33;;;;;;;;;;5026480;28;20033;-58
2022/01/21 01:27:49;;;;;;;19.27;3.63;;;;;;;;;;5030188;28;20039;-58
2022/01/21 01:30:16;;;;;;;15.25;3.92;;;;;;;;;;5027186;28;20033;-59
2022/01/21 01:32:43;;;;;;;25.83;3.45;;;;;;;;;;5027582;28;20037;-59
2022/01/21 01:35:10;;;;;;;14.80;2.75;;;;;;;;;;5027233;28;20120;-59
2022/01/21 01:37:58;;;;;;;16.08;3.33;;;;;;;;;;5025450;28;20034;-59
2022/01/21 01:40:45;;;;;;;12.15;3.08;;;2.00;99.90;;;;;;5029599;28;20044;-59
2022/01/21 01:49:26;;;;;;;12.48;3.40;;;1.90;99.90;;;;;;5026337;28;20045;-58
2022/01/21 01:51:28;;;;;;;20.08;2.85;;;1.80;99.90;;;;;;5028224;28;20522;-57
2022/01/21 01:54:08;;;;;;;20.42;3.33;;;1.70;99.90;;;;;;5028872;28;20561;-58
2022/01/21 01:56:37;;;;;;;13.77;3.30;;;1.60;99.90;;;;;;5027316;28;20022;-59
2022/01/21 01:59:03;;;;;;;19.77;3.80;;;1.60;99.90;;;;;;5025766;28;20021;-58
2022/01/21 02:01:29;;;;;;;17.33;2.83;;;1.50;99.90;;;;;;5025860;28;20515;-58
2022/01/21 02:03:56;;;;;;;16.73;3.53;;;;;;;;;;5027138;28;20026;-59
2022/01/21 02:06:22;;;;;;;13.80;3.20;;;1.40;99.90;;;;;;5024426;28;20057;-59
2022/01/21 02:08:47;;;;;;;21.20;3.42;;;1.60;99.90;;;;;;5028394;28;20087;-58
2022/01/21 02:11:13;;;;;;;13.40;3.00;;;;;;;;;;5026876;28;20029;-59
2022/01/21 02:13:46;;;;;;;15.00;2.97;;;;;;;;;;5029832;28;20539;-59
2022/01/21 02:21:51;;;;;;;13.20;2.90;;;1.70;99.90;;;;;;5033006;28;20407;-59
2022/01/21 02:24:24;;;;;;;16.30;3.88;;;1.90;99.90;;;;;;5033117;28;20104;-58
2022/01/21 02:26:52;;;;;;;18.13;2.95;;;1.90;99.90;;;;;;5032177;28;20043;-58
2022/01/21 02:29:30;;;;;;;14.88;3.20;;;2.00;99.90;;;;;;5030761;28;20536;-58
2022/01/21 02:31:57;;;;;;;21.48;3.45;;;1.90;99.90;;;;;;5028525;28;20393;-59
2022/01/21 02:34:24;;;;;;;21.90;3.40;;;1.90;99.90;;;;;;5029508;28;20021;-57
2022/01/21 02:36:51;;;;;;;15.98;2.92;;;;;;;;;;5030816;28;20021;-58
2022/01/21 02:39:17;;;;;;;12.30;2.70;;;1.90;99.90;;;;;;5030776;28;20029;-58
2022/01/21 02:41:43;;;;;;;13.70;2.67;;;2.10;99.90;;;;;;5031112;28;20378;-58
2022/01/21 02:44:14;;;;;;;14.52;3.38;;;1.90;99.90;;;;;;5031948;28;20492;-58
2022/01/21 02:46:41;;;;;;;16.27;2.47;;;1.90;99.90;;;;;;5030965;28;20024;-58
2022/01/21 02:49:08;;;;;;;11.82;2.55;;;1.80;99.90;;;;;;5031592;28;20539;-60
2022/01/21 02:51:35;;;;;;;12.45;2.88;;;1.90;99.90;;;;;;5029391;28;20463;-58
2022/01/21 02:54:03;;;;;;;18.63;3.05;;;1.90;99.90;;;;;;5027590;28;20139;-58
2022/01/21 02:56:29;;;;;;;18.92;3.42;;;2.00;99.90;;;;;;5030801;28;20024;-58
2022/01/21 02:58:56;;;;;;;19.30;3.10;;;2.00;99.90;;;;;;5030596;28;20500;-59
2022/01/21 03:01:22;;;;;;;12.52;2.60;;;1.90;99.90;;;;;;5030098;28;20568;-58
2022/01/21 03:03:47;;;;;;;16.05;2.80;;;1.90;99.90;;;;;;5030745;28;20044;-58
2022/01/21 03:06:15;;;;;;;14.52;2.17;;;1.90;99.90;;;;;;5029458;28;20060;-58
2022/01/21 03:08:42;;;;;;;15.68;3.00;;;1.90;99.90;;;;;;5030373;28;20349;-58
2022/01/21 03:11:08;;;;;;;19.45;3.13;;;2.00;99.90;;;;;;5031830;28;20060;-58
2022/01/21 03:13:34;;;;;;;13.43;3.03;;;1.90;99.90;;;;;;5029205;28;20497;-59
2022/01/21 03:15:59;;;;;;;16.65;3.00;;;1.80;99.90;;;;;;5026760;28;20033;-59
2022/01/21 03:18:25;;;;;;;15.93;2.55;;;1.90;99.90;;;;;;5029454;28;20013;-59
2022/01/21 03:20:51;;;;;;;13.75;2.67;;;1.90;99.90;;;;;;5028455;28;20017;-58
2022/01/21 03:23:19;;;;;;;16.30;3.00;;;1.80;99.90;;;;;;5032437;28;20033;-58
2022/01/21 03:25:47;;;;;;;14.02;2.42;;;1.70;99.90;;;;;;5028507;28;20044;-58
2022/01/21 03:28:13;;;;;;;20.77;3.10;;;1.80;99.90;;;;;;5025302;28;20044;-58
2022/01/21 03:30:39;;;;;;;15.82;3.10;;;1.90;99.90;;;;;;5028469;28;20455;-59
2022/01/21 03:33:05;;;;;;;17.38;3.58;;;2.00;99.90;;;;;;5029532;28;20104;-58
2022/01/21 03:35:32;;;;;;;18.33;3.22;;;1.80;99.90;;;;;;5030064;28;20178;-59
2022/01/21 03:37:57;;;;;;;16.48;3.17;;;2.00;99.90;;;;;;5029748;28;20036;-59
2022/01/21 03:40:23;;;;;;;15.75;3.75;;;2.00;99.90;;;;;;5030593;28;20365;-59
2022/01/21 03:42:49;;;;;;;14.85;2.85;;;1.90;99.90;;;;;;5030692;28;20030;-57
2022/01/21 03:45:15;;;;;;;21.17;3.83;;;2.00;99.90;;;;;;5032910;28;20096;-58
2022/01/21 03:47:42;;;;;;;15.18;3.05;;;2.00;99.90;;;;;;5028936;28;20036;-59
2022/01/21 03:52:45;;;;;;;28.08;3.50;;;1.70;99.90;;;;;;5026336;28;20508;-58
2022/01/21 03:55:11;;;;;;;20.00;3.33;;;1.90;99.90;;;;;;5027634;28;20076;-58
2022/01/21 03:57:36;;;;;;;17.17;3.65;;;2.00;99.90;;;;;;5029610;28;20087;-59
2022/01/21 04:00:05;;;;;;;18.15;3.42;;;1.70;99.90;;;;;;5028637;28;20100;-59
2022/01/21 04:02:31;;;;;;;18.60;3.55;;;1.90;99.90;;;;;;5024855;28;20567;-59
2022/01/21 04:04:56;;;;;;;16.98;3.80;;;1.90;99.90;;;;;;5025902;28;20020;-59
2022/01/21 04:07:22;;;;;;;17.00;3.28;;;2.10;99.90;;;;;;5029674;28;20464;-59
2022/01/21 04:09:47;;;;;;;12.63;2.97;;;2.10;99.90;;;;;;5029765;28;20058;-57
2022/01/21 04:12:13;;;;;;;20.35;3.00;;;2.20;99.90;;;;;;5026129;28;20052;-59
2022/01/21 04:14:39;;;;;;;20.00;3.30;;;2.10;99.90;;;;;;5031692;28;20528;-58
2022/01/21 04:17:05;;;;;;;13.10;3.22;;;2.10;99.90;;;;;;5030044;28;20064;-58
2022/01/21 04:19:30;;;;;;;19.60;3.13;;;2.10;99.90;;;;;;5030407;28;20417;-58
2022/01/21 04:21:56;;;;;;;15.73;3.13;;;2.00;99.90;;;;;;5026418;28;20048;-59
2022/01/21 04:24:21;;;;;;;15.82;3.28;;;2.10;99.90;;;;;;5029942;28;20047;-59
2022/01/21 04:26:47;;;;;;;12.65;2.90;;;2.00;99.90;;;;;;5023618;28;20045;-58
2022/01/21 04:29:13;;;;;;;10.85;2.75;;;2.00;99.90;;;;;;5029316;28;20159;-59
2022/01/21 04:31:38;;;;;;;15.77;2.88;;;2.00;99.90;;;;;;5027649;28;20531;-58
2022/01/21 04:34:04;;;;;;;11.13;2.95;;;2.10;99.90;;;;;;5029621;28;20028;-58
2022/01/21 04:36:29;;;;;;;19.00;3.70;;;2.30;99.90;;;;;;5029906;28;20026;-59
2022/01/21 04:38:58;;;;;;;20.08;3.40;;;2.10;99.90;;;;;;5029692;28;20049;-59
2022/01/21 04:49:36;;;;;;;17.75;3.67;;;2.20;99.90;;;;;;5031503;28;20130;-59
2022/01/21 04:52:02;;;;;;;14.93;3.22;;;2.20;99.90;;;;;;5030242;28;20033;-58
2022/01/21 04:54:30;;;;;;;12.95;3.40;;;2.30;99.90;;;;;;5028742;28;20147;-58
2022/01/21 04:56:56;;;;;;;21.45;3.95;;;;;;;;;;5030713;28;20031;-59
2022/01/21 04:59:22;;;;;;;18.55;3.65;;;1.70;99.90;;;;;;5029227;28;20018;-57
2022/01/21 05:01:47;;;;;;;22.15;4.65;;;2.00;99.90;;;;;;5030755;28;20237;-59
2022/01/21 05:04:13;;;;;;;12.40;3.70;;;2.00;99.90;;;;;;5029464;28;20048;-58
2022/01/21 05:06:40;;;;;;;19.85;3.80;;;2.00;99.90;;;;;;5025447;28;20021;-58
2022/01/21 05:09:06;;;;;;;18.63;4.75;;;2.20;99.90;;;;;;5027372;28;20534;-58
2022/01/21 05:11:36;;;;;;;16.17;5.43;;;2.00;99.90;;;;;;5030891;28;20100;-59
2022/01/21 05:14:15;;;;;;;19.30;4.60;;;2.10;99.90;;;;;;5025123;28;20669;-58
2022/01/21 05:16:46;;;;;;;20.52;4.70;;;2.00;99.90;;;;;;5027183;28;20060;-59
2022/01/21 05:19:15;;;;;;;24.67;5.72;;;2.20;99.90;;;;;;5030532;28;20036;-57
2022/01/21 05:21:44;;;;;;;15.73;4.82;;;2.00;99.90;;;;;;5027207;28;20155;-58
2022/01/21 05:24:11;;;;;;;22.85;5.32;;;2.10;99.90;;;;;;5025396;28;20033;-58
2022/01/21 05:26:39;;;;;;;21.70;5.20;;;2.10;99.90;;;;;;5026628;28;20029;-59
2022/01/21 05:29:08;;;;;;;21.88;5.82;;;2.10;99.90;;;;;;5026791;28;20029;-59
2022/01/21 05:31:34;;;;;;;18.35;4.68;;;2.00;99.90;;;;;;5030932;28;20029;-59
2022/01/21 05:34:00;;;;;;;20.85;4.70;;;1.70;99.90;;;;;;5029062;28;20033;-58
2022/01/21 05:36:26;;;;;;;22.85;5.68;;;1.60;99.90;;;;;;5027393;28;20698;-59
2022/01/21 05:38:55;;;;;;;20.80;5.10;;;;;;;;;;5024457;28;20083;-58
2022/01/21 05:41:24;;;;;;;20.27;5.18;;;;;;;;;;5026884;28;20714;-58
2022/01/21 05:43:58;;;;;;;21.63;5.65;;;1.70;99.90;;;;;;5029292;28;20022;-59
2022/01/21 05:47:06;;;;;;;18.70;4.95;;;2.00;99.90;;;;;;5033548;28;20063;-58
2022/01/21 05:49:15;;;;;;;20.80;5.13;;;;;;;;;;5022189;28;20068;-58
2022/01/21 05:51:42;;;;;;;15.65;5.05;;;;;;;;;;5032429;28;20652;-58
2022/01/21 05:54:09;;;;;;;23.17;5.95;;;;;;;;;;5032191;28;20381;-58
2022/01/21 05:56:35;;;;;;;18.25;5.38;;;;;;;;;;5031295;28;20065;-59
2022/01/21 05:59:01;;;;;;;17.73;5.50;;;;;;;;;;5031949;28;20026;-59
2022/01/21 06:01:28;;;;;;;17.50;5.55;;;;;;;;;;5029363;28;20440;-57
2022/01/21 06:03:54;;;;;;;16.92;5.10;;;;;;;;;;5031502;28;20401;-58
2022/01/21 06:06:20;;;;;;;19.02;5.20;;;;;;;;;;5032893;28;20606;-58
2022/01/21 06:08:46;;;;;;;19.30;5.55;;;1.80;99.90;;;;;;5033847;28;20029;-59
2022/01/21 06:11:12;;;;;;;18.48;5.47;;;1.80;99.90;;;;;;5030536;28;20380;-58
2022/01/21 06:13:38;;;;;;;18.30;5.45;;;1.90;99.90;;;;;;5030362;28;20033;-59
2022/01/21 06:16:04;;;;;;;20.55;5.85;;;1.70;99.90;;;;;;5028692;28;20052;-59
2022/01/21 06:18:30;;;;;;;12.90;5.00;;;1.70;99.90;;;;;;5026799;28;20041;-59
2022/01/21 06:20:56;;;;;;;17.08;5.65;;;1.70;99.90;;;;;;5031634;28;20033;-58
2022/01/21 06:23:21;;;;;;;17.17;6.13;;;1.70;99.90;;;;;;5032259;28;20119;-58
2022/01/21 06:25:47;;;;;;;25.95;5.97;;;1.70;99.90;;;;;;5033697;28;20190;-58
2022/01/21 06:28:13;;;;;;;15.55;5.82;;;1.60;99.90;;;;;;5031867;28;20130;-59
2022/01/21 06:30:38;;;;;;;16.77;5.55;;;1.60;99.90;;;;;;5030484;28;20033;-59
2022/01/21 06:33:04;;;;;;;25.63;5.85;;;1.50;99.90;;;;;;5024623;28;20116;-58
2022/01/21 06:35:30;;;;;;;24.98;5.63;;;1.70;99.90;;;;;;5030491;28;20045;-57
2022/01/21 06:37:55;;;;;;;23.95;6.13;;;1.50;99.90;;;;;;5031033;28;20066;-58
2022/01/21 06:40:22;;;;;;;20.20;6.75;;;1.60;99.90;;;;;;5032759;28;20028;-58
2022/01/21 06:42:52;;;;;;;19.50;5.63;;;1.60;99.90;;;;;;5028488;28;20025;-59
2022/01/21 06:45:19;;;;;;;18.00;6.03;;;1.40;99.90;;;;;;5033502;28;20074;-58
2022/01/21 06:47:46;;;;;;;18.70;5.72;;;1.40;99.90;;;;;;5030247;28;20729;-59
2022/01/21 06:50:12;;;;;;;17.20;5.18;;;1.60;99.90;;;;;;5031115;28;20622;-59
2022/01/21 06:52:37;;;;;;;17.73;5.60;;;1.60;99.90;;;;;;5033162;28;20029;-59
2022/01/21 06:55:04;;;;;;;14.93;5.55;;;1.60;99.90;;;;;;5028864;28;20602;-57
2022/01/21 06:57:30;;;;;;;18.30;6.18;;;1.60;99.90;;;;;;5029919;28;20136;-59
2022/01/21 06:59:56;;;;;;;22.38;5.93;;;1.40;99.90;;;;;;5032182;28;20056;-59
2022/01/21 07:02:22;;;;;;;21.05;5.97;;;1.50;99.90;;;;;;5035270;28;20017;-59
2022/01/21 07:04:49;;;;;;;17.92;6.47;;;1.50;99.90;;;;;;5030621;28;20083;-59
2022/01/21 07:07:15;;;;;;;14.70;5.40;;;1.50;99.90;;;;;;5024617;28;20037;-59
2022/01/21 07:09:43;;;;;;;14.55;5.50;;;;;;;;;;5028772;28;20053;-59
2022/01/21 07:12:09;;;;;;;15.32;5.82;;;1.50;99.90;;;;;;5026952;28;20078;-60
2022/01/21 07:14:35;;;;;;;23.70;6.05;;;1.50;99.90;;;;;;5028754;28;20552;-59
2022/01/21 07:17:03;;;;;;;22.25;6.20;;;;;;;;;;5030203;28;20033;-59
2022/01/21 07:19:30;;;;;;;19.70;6.47;;;;;;;;;;5029188;28;20393;-60
2022/01/21 07:21:57;;;;;;;22.27;6.28;;;;;;;;;;5024940;28;20329;-58
2022/01/21 07:24:24;;;;;;;21.92;6.18;;;1.10;99.90;;;;;;5029291;28;20155;-59
2022/01/21 07:26:51;;;;;;;23.52;6.95;;;;;;;;;;5028219;28;20086;-59
2022/01/21 07:29:19;;;;;;;21.27;6.53;;;;;;;;;;5027174;28;20118;-59
2022/01/21 07:31:51;;;;;;;24.67;6.60;;;;;;;;;;5027312;28;20449;-59
2022/01/21 07:34:17;;;;;;;20.20;6.38;;;1.30;99.90;;;;;;5025839;28;20091;-60
2022/01/21 07:36:42;;;;;;;16.48;5.97;;;1.30;99.90;;;;;;5028769;28;20415;-59
2022/01/21 07:39:08;;;;;;;20.50;6.40;;;1.40;99.90;;;;;;5026383;28;20342;-60
2022/01/21 07:41:33;;;;;;;16.50;6.70;;;1.40;99.90;;;;;;5024528;28;20021;-59
2022/01/21 07:43:59;;;;;;;20.75;6.60;;;1.60;99.90;;;;;;5024923;28;20106;-59
2022/01/21 07:46:26;;;;;;;12.90;5.90;;;1.40;99.90;;;;;;5030305;28;20052;-59
2022/01/21 07:48:51;;;;;;;19.13;6.40;;;1.50;99.90;;;;;;5027229;28;20025;-59
2022/01/21 07:51:17;;;;;;;13.15;6.10;;;1.50;99.90;;;;;;5026198;28;20033;-60
2022/01/21 07:53:42;;;;;;;19.00;6.72;;;1.50;99.90;;;;;;5028937;28;20509;-59
2022/01/21 07:56:08;;;;;;;14.98;5.60;;;1.30;99.90;;;;;;5030841;28;20030;-59
2022/01/21 07:58:34;;;;;;;16.75;6.18;;;1.50;99.90;;;;;;5029294;28;20032;-59
2022/01/21 08:00:59;;;;;;;17.38;6.00;;;1.60;99.90;;;;;;5030014;28;20063;-59
2022/01/21 08:03:25;;;;;;;19.05;6.10;;;1.50;99.90;;;;;;5026244;28;20029;-60
2022/01/21 08:05:51;;;;;;;22.38;7.75;;;1.50;99.90;;;;;;5031000;28;20056;-60
2022/01/21 08:08:18;;;;;;;18.73;7.10;;;1.60;99.90;;;;;;5030356;28;20068;-59
2022/01/21 08:10:44;;;;;;;17.23;8.27;;;1.70;99.90;;;;;;5024906;28;20030;-59
2022/01/21 08:13:09;;;;;;;16.33;6.63;;;1.90;99.90;;;;;;5026066;28;20039;-60
2022/01/21 08:15:35;;;;;;;20.27;7.60;;;1.90;99.90;;;;;;5017997;28;20027;-59
2022/01/21 08:18:01;;;;;;;17.55;6.60;;;1.90;99.90;;;;;;5027403;28;20034;-59
2022/01/21 08:20:28;;;;;;;15.88;6.78;;;1.80;99.90;;;;;;5027303;28;20018;-58
2022/01/21 08:22:54;;;;;;;19.55;7.13;;;1.80;99.90;;;;;;5023512;28;20099;-59
2022/01/21 08:25:20;;;;;;;18.90;6.85;;;1.50;99.90;;;;;;5025017;28;20037;-60
2022/01/21 08:27:45;;;;;;;22.20;7.43;;;1.60;99.90;;;;;;5022190;28;20021;-59
2022/01/21 08:30:11;;;;;;;18.45;7.00;;;1.70;99.90;;;;;;5022692;28;20488;-59
2022/01/21 08:32:37;;;;;;;21.30;6.97;;;1.80;99.90;;;;;;5027374;28;20021;-59
2022/01/21 08:35:06;;;;;;;20.60;7.55;;;1.60;99.90;;;;;;5029237;28;20067;-59
2022/01/21 08:37:31;;;;;;;17.65;6.57;;;1.70;99.90;;;;;;5028230;28;20120;-59
2022/01/21 08:39:57;;;;;;;22.33;6.90;;;1.60;99.90;;;;;;5028818;28;20112;-59
2022/01/21 08:42:22;;;;;;;20.20;7.25;;;1.70;99.90;;;;;;5028291;28;20049;-59
2022/01/21 08:44:48;;;;;;;16.17;6.90;;;1.80;99.90;;;;;;5026079;28;20496;-60
2022/01/21 08:47:15;;;;;;;24.70;7.25;;;1.80;99.90;;;;;;5025172;28;20021;-59
2022/01/21 08:49:43;;;;;;;21.88;7.30;;;1.80;99.90;;;;;;5025980;28;20108;-59
2022/01/21 08:52:18;;;;;;;20.55;6.97;;;1.90;99.90;;;;;;5028154;28;20040;-59
2022/01/21 08:54:43;;;;;;;16.40;7.72;;;1.90;99.90;;;;;;5028690;28;20202;-59
2022/01/21 08:57:09;;;;;;;20.83;7.15;;;2.00;99.90;;;;;;5027725;28;20605;-60
2022/01/21 08:59:34;;;;;;;15.05;7.65;;;2.00;99.90;;;;;;5026404;28;20049;-60
2022/01/21 09:02:00;;;;;;;16.13;7.20;;;2.00;99.90;;;;;;5025927;28;20033;-59
2022/01/21 09:04:26;;;;;;;22.15;7.45;;;2.10;99.90;;;;;;5026905;28;20521;-60
2022/01/21 09:06:51;;;;;;;19.67;7.57;;;2.10;99.90;;;;;;5025346;28;20834;-60
2022/01/21 09:09:17;;;;;;;17.45;7.20;;;2.20;99.90;;;;;;5023218;28;20048;-60
2022/01/21 09:11:43;;;;;;;16.73;7.03;;;2.20;99.90;;;;;;5025075;28;20025;-59
2022/01/21 09:14:09;;;;;;;16.77;7.43;;;2.30;99.90;;;;;;5025376;28;20055;-60
2022/01/21 09:16:34;;;;;;;24.77;8.35;;;2.30;99.90;;;;;;5026240;28;20388;-59
2022/01/21 09:19:02;;;;;;;18.60;8.55;;;;;;;;;;5020513;28;20029;-60
2022/01/21 09:21:31;;;;;;;19.08;7.13;;;1.90;99.90;;;;;;5023471;28;20033;-59
2022/01/21 09:23:58;;;;;;;22.65;7.32;;;;;;;;;;5022272;28;20029;-60
2022/01/21 09:26:25;;;;;;;20.52;6.82;;;2.40;99.90;;;;;;5021283;28;20632;-59
2022/01/21 09:28:52;;;;;;;19.98;7.38;;;2.20;99.90;;;;;;5027166;28;20108;-59
2022/01/21 09:31:18;;;;;;;15.02;7.07;;;2.50;99.90;;;;;;5028462;28;20483;-60
2022/01/21 09:33:44;;;;;;;23.77;7.00;;;2.70;99.90;;;;;;5024211;28;20022;-60
2022/01/21 09:36:11;;;;;;;21.15;6.97;;;2.80;99.90;;;;;;5026323;28;20064;-60
2022/01/21 09:38:37;;;;;;;17.73;6.72;;;2.80;99.90;;;;;;5024682;28;21478;-60
2022/01/21 09:41:06;;;;;;;38.50;7.45;;;;;;;;;;5020112;28;20103;-60
2022/01/21 09:43:34;;;;;;;26.95;7.18;;;;;;;;;;5021478;28;20488;-60
2022/01/21 09:46:05;;;;;;;19.25;9.38;;;;;;;;;;5027507;28;20037;-58
2022/01/21 09:48:47;;;;;;;20.90;7.57;;;;;;;;;;5021787;28;20033;-60
2022/01/21 09:51:14;;;;;;;16.38;5.72;;;;;;;;;;5027237;28;20037;-60
2022/01/21 09:53:43;;;;;;;15.65;5.35;;;;;;;;;;5024544;28;20422;-60
2022/01/21 09:56:10;;;;;;;15.27;6.03;;;;;;;;;;5023582;28;20461;-60
2022/01/21 09:58:36;;;;;;;17.88;5.72;;;2.90;99.90;;;;;;5025062;28;20837;-59
2022/01/21 10:01:05;;;;;;;16.98;5.93;;;;;;;;;;5026285;28;20017;-60
2022/01/21 10:03:33;;;;;;;12.65;5.70;;;3.00;99.90;;;;;;5023244;28;20032;-60
2022/01/21 10:06:01;;;;;;;17.23;6.07;;;;;;;;;;5024158;28;20025;-60
2022/01/21 10:08:28;;;;;;;17.88;5.97;;;3.20;99.90;;;;;;5024157;28;20500;-60
2022/01/21 10:10:54;;;;;;;19.58;5.97;;;3.40;99.90;;;;;;5021006;28;20500;-61
2022/01/21 10:13:21;;;;;;;17.17;5.47;;;3.30;99.90;;;;;;5022586;28;20033;-60
2022/01/21 10:15:48;;;;;;;20.20;5.88;;;3.40;99.90;;;;;;5019341;28;20097;-60
2022/01/21 10:18:16;;;;;;;17.65;5.78;;;;;;;;;;5025753;28;20409;-60
2022/01/21 10:21:01;;;;;;;19.05;6.15;;;;;;;;;;5025271;28;20469;-60
2022/01/21 10:23:29;;;;;;;13.95;5.72;;;3.30;99.90;;;;;;5027950;28;20527;-61
2022/01/21 10:25:57;;;;;;;14.25;5.85;;;3.40;99.90;;;;;;5024951;28;20519;-60
2022/01/21 10:28:24;;;;;;;25.83;7.07;;;3.40;99.90;;;;;;5026502;28;20528;-61
2022/01/21 10:31:19;;;;;;;12.68;5.63;;;3.50;99.90;;;;;;5024453;28;20030;-60
2022/01/21 10:33:52;;;;;;;17.52;5.95;;;;;;;;;;5029206;28;20029;-61
2022/01/21 10:36:27;;;;;;;15.57;5.35;;;3.40;99.90;;;;;;5029651;28;20033;-61
2022/01/21 10:39:11;;;;;;;14.57;5.82;;;3.50;99.90;;;;;;5027956;28;20029;-61
2022/01/21 10:41:43;;;;;;;21.77;5.72;;;3.60;99.90;;;;;;5032132;28;20040;-60
2022/01/21 10:44:15;;;;;;;16.23;6.03;;;3.60;99.90;;;;;;5029847;28;20082;-61
2022/01/21 10:46:46;;;;;;;20.10;6.05;;;3.70;99.90;;;;;;5025165;28;20120;-62
2022/01/21 10:49:14;;;;;;;14.07;5.32;;;;;;;;;;5027295;28;20082;-61
2022/01/21 10:51:47;;;;;;;18.33;4.82;;;4.20;99.90;;;;;;5027055;28;20056;-61
2022/01/21 10:54:26;;;;;;;15.90;4.68;;;4.40;99.90;;;;;;5032561;28;20037;-61
2022/01/21 10:57:20;;;;;;;17.20;5.32;;;4.10;99.90;;;;;;5027228;28;20041;-61
2022/01/21 10:59:54;;;;;;;15.50;4.53;;;4.20;99.90;;;;;;5029352;28;20021;-61
2022/01/21 11:02:33;;;;;;;14.23;5.00;;;4.30;99.90;;;;;;5025001;28;20037;-60
2022/01/21 11:05:02;;;;;;;13.60;4.93;;;4.30;99.90;;;;;;5030211;28;20060;-60
2022/01/21 11:07:43;;;;;;;18.33;4.93;;;4.30;99.90;;;;;;5027135;28;20681;-61
2022/01/21 11:10:09;;;;;;;13.20;4.63;;;4.50;99.90;;;;;;5024905;28;20055;-60
2022/01/21 11:12:34;;;;;;;16.63;4.82;;;4.30;99.90;;;;;;5028647;28;20045;-61
2022/01/21 11:15:03;;;;;;;16.73;5.13;;;4.40;99.90;;;;;;5028303;28;20029;-61
2022/01/21 11:17:29;;;;;;;14.68;4.03;;;4.50;99.90;;;;;;5028736;28;20052;-61
2022/01/21 11:20:06;;;;;;;18.92;5.70;;;4.60;99.90;;;;;;5027108;28;20069;-60
2022/01/21 11:22:50;;;;;;;15.85;4.65;;;4.60;99.90;;;;;;5027229;28;20414;-60
2022/01/21 11:25:16;;;;;;;10.95;4.00;;;4.70;99.90;;;;;;5025265;28;20029;-61
2022/01/21 11:27:54;;;;;;;19.17;4.55;;;4.70;99.90;;;;;;5029692;28;20321;-61
2022/01/21 11:30:20;;;;;;;11.65;4.75;;;4.70;99.90;;;;;;5025526;28;20637;-61
2022/01/21 11:32:45;;;;;;;14.02;4.93;;;4.80;99.90;;;;;;5027747;28;20034;-61
2022/01/21 11:35:11;;;;;;;14.00;5.15;;;4.90;99.90;;;;;;5029429;28;20049;-61
2022/01/21 11:37:37;;;;;;;16.23;4.82;;;4.90;99.90;;;;;;5027133;28;20096;-60
2022/01/21 11:40:04;;;;;;;16.75;5.00;;;4.80;99.90;;;;;;5025146;28;20029;-60
2022/01/21 11:42:30;;;;;;;12.55;5.30;;;4.90;99.90;;;;;;5027532;28;20033;-60
2022/01/21 11:45:14;;;;;;;13.38;5.18;;;4.90;99.90;;;;;;5028374;28;20439;-60
2022/01/21 11:48:11;;;;;;;;;;;4.90;99.90;;;;;;5025689;28;20043;-60
2022/01/21 11:50:35;;;;;;;15.85;5.40;;;5.00;99.90;;;;;;5026503;28;20183;-61
2022/01/21 11:53:01;;;;;;;14.75;4.78;;;4.90;99.90;;;;;;5021712;28;20042;-60
2022/01/21 11:55:30;;;;;;;15.07;5.07;;;5.00;99.90;;;;;;5028741;28;20041;-61
2022/01/21 11:58:10;;;;;;;12.95;4.80;;;5.10;99.90;;;;;;5024575;28;20454;-60
2022/01/21 12:00:36;;;;;;;11.88;5.10;;;5.10;99.90;;;;;;5028133;28;20025;-60
2022/01/21 12:03:01;;;;;;;13.52;5.00;;;5.10;99.90;;;;;;5026989;28;20036;-60
2022/01/21 12:05:27;;;;;;;22.08;7.72;;;5.00;99.90;;;;;;5025177;28;20045;-61
2022/01/21 12:07:53;;;;;;;19.85;7.68;;;5.20;99.90;;;;;;5026909;28;20034;-60
2022/01/21 12:10:21;;;;;;;15.27;5.55;;;4.10;99.90;;;;;;5029872;28;20099;-60
2022/01/21 12:20:49;;;;;;;13.20;5.07;;;5.30;99.90;;;;;;5028750;28;20314;-59
2022/01/21 12:23:21;;;;;;;13.93;4.35;;;5.30;99.90;;;;;;5029723;28;20489;-60
2022/01/21 12:26:13;;;;;;;17.42;4.95;;;5.80;99.90;;;;;;5022881;28;20040;-60
2022/01/21 12:28:40;;;;;;;14.38;4.32;;;5.40;99.90;;;;;;5027856;28;20574;-61
2022/01/21 12:31:07;;;;;;;13.38;4.50;;;5.50;99.90;;;;;;5027751;28;20032;-61
2022/01/21 12:34:04;;;;;;;15.77;5.07;;;5.60;99.90;;;;;;5029568;28;20229;-60
2022/01/21 12:36:34;;;;;;;16.08;4.32;;;5.50;99.90;;;;;;5024707;28;20235;-60
2022/01/21 12:41:30;;;;;;;15.23;4.60;;;5.70;99.90;;;;;;5029460;28;20036;-60
2022/01/21 12:44:04;;;;;;;13.38;3.92;;;5.70;99.90;;;;;;5025160;28;20025;-61
2022/01/21 12:46:52;;;;;;;20.27;4.55;;;5.70;99.90;;;;;;5028783;28;20079;-61
2022/01/21 12:49:39;;;;;;;19.80;4.35;;;5.70;99.90;;;;;;5026809;28;20039;-61
2022/01/21 12:57:30;;;;;;;20.80;4.55;;;6.00;99.90;;;;;;5028454;28;20401;-60
2022/01/21 12:59:58;;;;;;;17.58;4.68;;;6.00;99.90;;;;;;5027122;28;20024;-60
2022/01/21 13:02:26;;;;;;;22.90;4.47;;;6.10;99.90;;;;;;5029107;28;20669;-61
2022/01/21 13:05:17;;;;;;;15.85;3.58;;;6.10;99.90;;;;;;5025571;28;20025;-60
2022/01/21 13:07:42;;;;;;;17.52;3.60;;;6.00;99.90;;;;;;5026236;28;20037;-60
2022/01/21 13:10:12;;;;;;;17.50;7.05;;;6.00;99.90;;;;;;5022608;28;20021;-60
2022/01/21 13:15:55;;;;;;;23.17;7.35;;;6.00;99.90;;;;;;5026393;28;20037;-61
2022/01/21 13:18:31;;;;;;;28.80;9.70;;;6.00;99.90;;;;;;5024859;28;20020;-60
2022/01/21 13:21:05;;;;;;;17.08;5.80;;;6.10;99.90;;;;;;5023555;28;20017;-61
2022/01/21 13:23:40;;;;;;;19.27;4.20;;;6.10;99.90;;;;;;5026235;28;20029;-60
2022/01/21 13:26:11;;;;;;;17.30;5.20;;;6.00;99.90;;;;;;5026943;28;20380;-60
2022/01/21 13:29:11;;;;;;;14.82;3.75;;;6.00;99.90;;;;;;5023928;28;20059;-60
2022/01/21 13:31:52;;;;;;;15.02;3.70;;;;;;;;;;5025985;28;20417;-60
2022/01/21 13:34:32;;;;;;;13.95;3.13;;;6.00;99.90;;;;;;5026559;28;20108;-60
2022/01/21 13:37:00;;;;;;;16.25;3.53;;;5.90;99.90;;;;;;5026480;28;20068;-60
2022/01/21 13:39:32;;;;;;;11.13;3.72;;;5.80;99.90;;;;;;5024550;28;20033;-60
2022/01/21 13:42:00;;;;;;;16.08;4.30;;;5.80;99.90;;;;;;5026029;28;20067;-61
2022/01/21 13:44:45;;;;;;;15.07;3.05;;;5.80;99.90;;;;;;5024481;28;20029;-60
2022/01/21 13:47:28;;;;;;;14.85;3.03;;;5.90;99.90;;;;;;5023508;28;20059;-60
2022/01/21 13:50:00;;;;;;;12.27;2.53;;;5.80;99.90;;;;;;5021249;28;20531;-60
2022/01/21 13:52:37;;;;;;;10.43;3.35;;;5.90;99.90;;;;;;5025371;28;20026;-60
2022/01/21 13:55:04;;;;;;;12.27;3.28;;;5.80;99.90;;;;;;5025313;28;20576;-59
2022/01/21 13:57:30;;;;;;;19.80;3.10;;;5.80;99.90;;;;;;5022977;28;20104;-61
2022/01/21 13:59:56;;;;;;;8.20;2.60;;;5.80;99.90;;;;;;5020732;28;20124;-60
2022/01/21 14:02:22;;;;;;;13.20;3.45;;;5.90;99.90;;;;;;5026089;28;20029;-59
2022/01/21 14:04:59;;;;;;;12.90;3.65;;;5.90;99.90;;;;;;5025983;28;20025;-60
2022/01/21 14:07:27;;;;;;;13.82;3.33;;;5.80;99.90;;;;;;5025106;28;20163;-60
2022/01/21 14:09:53;;;;;;;15.40;3.60;;;5.90;99.90;;;;;;5023974;28;20107;-61
2022/01/21 14:12:19;;;;;;;16.20;3.88;;;5.90;99.90;;;;;;5028237;28;20156;-60
2022/01/21 14:14:48;;;;;;;16.77;3.97;;;6.00;99.90;;;;;;5025652;28;20546;-61
2022/01/21 14:17:14;;;;;;;17.08;4.35;;;6.00;99.90;;;;;;5029721;28;20523;-61
2022/01/21 14:19:40;;;;;;;13.23;3.60;;;6.10;99.90;;;;;;5023942;28;20021;-60